createdAt,value
2022-10-02T00:02:49.167Z,20.95
2022-10-02T00:05:38.891Z,21.04
2022-10-02T00:08:28.502Z,20.62
2022-10-02T00:11:19.821Z,20.75
2022-10-02T00:14:06.205Z,20.52
2022-10-02T00:16:53.209Z,20.44
2022-10-02T00:19:38.379Z,20.26
2022-10-02T00:22:42.495Z,20.04
2022-10-02T00:25:32.444Z,19.77
2022-10-02T00:28:23.966Z,19.95
2022-10-02T00:31:23.320Z,19.93
2022-10-02T00:34:22.002Z,20.02
2022-10-02T00:37:14.193Z,20.06
2022-10-02T00:40:23.200Z,20.03
2022-10-02T00:43:20.050Z,19.88
2022-10-02T00:46:33.772Z,19.92
2022-10-02T00:49:34.177Z,19.47
2022-10-02T00:52:37.958Z,19.59
2022-10-02T00:55:34.958Z,19.40
2022-10-02T00:58:33.153Z,19.51
2022-10-02T01:01:21.826Z,19.38
2022-10-02T01:04:10.487Z,19.16
2022-10-02T01:06:54.412Z,19.13
2022-10-02T01:09:40.700Z,19.09
2022-10-02T01:12:25.584Z,19.23
2022-10-02T01:15:13.595Z,18.98
2022-10-02T01:17:58.005Z,19.04
2022-10-02T01:20:44.866Z,18.88
2022-10-02T01:23:35.004Z,18.80
2022-10-02T01:26:20.462Z,18.98
2022-10-02T01:29:04.236Z,18.80
2022-10-02T01:31:47.982Z,18.90
2022-10-02T01:34:33.878Z,18.65
2022-10-02T01:37:17.825Z,18.77
2022-10-02T01:40:06.847Z,18.53
2022-10-02T01:42:52.480Z,18.72
2022-10-02T01:45:52.548Z,18.66
2022-10-02T01:48:46.219Z,18.74
2022-10-02T01:51:44.985Z,18.96
2022-10-02T01:54:53.061Z,19.50
2022-10-02T01:57:55.457Z,19.22
2022-10-02T02:00:48.145Z,19.29
2022-10-02T02:03:41.230Z,19.34
2022-10-02T02:06:31.940Z,19.57
2022-10-02T02:09:20.524Z,19.78
2022-10-02T02:12:12.931Z,20.10
2022-10-02T02:15:04.483Z,20.19
2022-10-02T02:17:53.611Z,19.58
2022-10-02T02:20:43.952Z,19.90
2022-10-02T02:23:31.998Z,19.67
2022-10-02T02:26:18.889Z,19.74
2022-10-02T02:29:05.963Z,19.98
2022-10-02T02:31:55.483Z,19.88
2022-10-02T02:34:44.832Z,19.68
2022-10-02T02:37:33.164Z,19.61
2022-10-02T02:40:19.790Z,19.67
2022-10-02T02:43:09.051Z,19.36
2022-10-02T02:45:57.552Z,19.33
2022-10-02T02:48:47.082Z,19.59
2022-10-02T02:51:36.897Z,19.43
2022-10-02T02:54:24.966Z,19.54
2022-10-02T02:57:10.525Z,19.47
2022-10-02T02:59:57.748Z,19.40
2022-10-02T03:02:41.552Z,19.38
2022-10-02T03:05:27.798Z,19.52
2022-10-02T03:08:19.751Z,19.44
2022-10-02T03:11:13.236Z,18.61
2022-10-02T03:14:06.176Z,19.26
2022-10-02T03:16:58.524Z,19.11
2022-10-02T03:19:49.266Z,18.96
2022-10-02T03:22:44.168Z,18.91
2022-10-02T03:25:32.103Z,19.17
2022-10-02T03:28:43.561Z,19.29
2022-10-02T03:31:29.687Z,19.25
2022-10-02T03:34:14.124Z,19.40
2022-10-02T03:36:58.079Z,19.62
2022-10-02T03:39:44.339Z,19.59
2022-10-02T03:42:33.341Z,19.65
2022-10-02T03:45:33.016Z,19.64
2022-10-02T03:48:21.106Z,19.06
2022-10-02T03:51:05.061Z,19.26
2022-10-02T03:53:48.794Z,19.45
2022-10-02T03:56:41.622Z,19.55
2022-10-02T03:59:40.077Z,19.58
2022-10-02T04:02:32.959Z,19.62
2022-10-02T04:05:25.169Z,19.69
2022-10-02T04:08:17.901Z,19.46
2022-10-02T04:11:08.734Z,19.57
2022-10-02T04:14:00.339Z,19.81
2022-10-02T04:16:52.180Z,19.84
2022-10-02T04:19:43.451Z,20.07
2022-10-02T04:22:34.679Z,19.83
2022-10-02T04:25:21.051Z,19.59
2022-10-02T04:28:09.116Z,19.53
2022-10-02T04:30:55.177Z,19.41
2022-10-02T04:33:39.134Z,19.30
2022-10-02T04:36:39.406Z,19.53
2022-10-02T04:39:45.903Z,19.63
2022-10-02T04:42:44.061Z,19.75
2022-10-02T04:45:55.266Z,19.61
2022-10-02T04:49:03.781Z,19.70
2022-10-02T04:52:01.234Z,19.92
2022-10-02T04:55:08.136Z,20.19
2022-10-02T04:58:07.505Z,19.99
2022-10-02T05:01:02.539Z,20.00
2022-10-02T05:04:19.253Z,19.94
2022-10-02T05:07:16.388Z,20.14
2022-10-02T05:10:09.367Z,20.14
2022-10-02T05:13:05.354Z,20.34
2022-10-02T05:16:07.048Z,20.27
2022-10-02T05:19:19.114Z,20.78
2022-10-02T05:22:24.390Z,20.54
2022-10-02T05:25:24.362Z,20.46
2022-10-02T05:28:40.493Z,20.22
2022-10-02T05:31:35.849Z,20.08
2022-10-02T05:34:36.406Z,20.05
2022-10-02T05:37:34.643Z,20.33
2022-10-02T05:40:25.943Z,19.95
2022-10-02T05:43:14.195Z,19.72
2022-10-02T05:46:00.695Z,19.95
2022-10-02T05:48:48.014Z,19.90
2022-10-02T05:51:42.786Z,19.93
2022-10-02T05:54:35.775Z,20.33
2022-10-02T05:57:27.401Z,20.54
2022-10-02T06:00:23.312Z,19.83
2022-10-02T06:03:16.497Z,19.48
2022-10-02T06:06:04.166Z,20.12
2022-10-02T06:08:56.491Z,19.99
2022-10-02T06:11:45.723Z,19.87
2022-10-02T06:14:35.429Z,19.70
2022-10-02T06:17:25.942Z,19.57
2022-10-02T06:20:19.071Z,20.00
2022-10-02T06:23:08.739Z,19.91
2022-10-02T06:25:57.420Z,20.18
2022-10-02T06:28:45.206Z,19.54
2022-10-02T06:31:39.407Z,19.62
2022-10-02T06:34:24.456Z,19.47
2022-10-02T06:37:26.428Z,19.55
2022-10-02T06:40:35.825Z,19.40
2022-10-02T06:43:42.030Z,19.32
2022-10-02T06:46:34.443Z,18.84
2022-10-02T06:49:32.831Z,18.07
2022-10-02T06:52:28.644Z,19.31
2022-10-02T06:55:38.754Z,19.40
2022-10-02T06:58:45.441Z,19.64
2022-10-02T07:01:39.952Z,19.73
2022-10-02T07:04:46.807Z,19.77
2022-10-02T07:07:43.254Z,19.38
2022-10-02T07:10:35.783Z,19.57
2022-10-02T07:13:32.653Z,19.69
2022-10-02T07:16:32.063Z,19.68
2022-10-02T07:19:31.456Z,19.25
2022-10-02T07:22:44.657Z,19.12
2022-10-02T07:25:45.254Z,19.80
2022-10-02T07:28:38.132Z,19.68
2022-10-02T07:31:34.578Z,19.83
2022-10-02T07:34:34.231Z,20.58
2022-10-02T07:37:27.944Z,20.45
2022-10-02T07:40:32.335Z,20.66
2022-10-02T07:43:29.247Z,20.50
2022-10-02T07:46:20.613Z,20.41
2022-10-02T07:49:21.201Z,20.23
2022-10-02T07:52:17.901Z,20.51
2022-10-02T07:55:16.084Z,20.30
2022-10-02T07:58:07.107Z,20.52
2022-10-02T08:00:55.794Z,20.41
2022-10-02T08:03:46.600Z,20.89
2022-10-02T08:06:33.045Z,21.21
2022-10-02T08:09:24.064Z,21.12
2022-10-02T08:12:21.790Z,20.91
2022-10-02T08:15:08.388Z,21.46
2022-10-02T08:17:58.703Z,21.15
2022-10-02T08:20:50.615Z,21.03
2022-10-02T08:23:39.026Z,21.75
2022-10-02T08:26:31.787Z,21.83
2022-10-02T08:29:22.508Z,21.69
2022-10-02T08:32:11.578Z,22.52
2022-10-02T08:34:56.213Z,22.04
2022-10-02T08:37:52.260Z,22.57
2022-10-02T08:41:08.626Z,22.87
2022-10-02T08:44:22.906Z,22.81
2022-10-02T08:47:44.114Z,22.85
2022-10-02T08:51:17.784Z,23.03
2022-10-02T08:54:42.781Z,22.98
2022-10-02T08:58:11.032Z,22.45
2022-10-02T09:01:06.848Z,22.89
2022-10-02T09:04:15.499Z,22.37
2022-10-02T09:07:35.364Z,22.49
2022-10-02T09:10:51.673Z,22.33
2022-10-02T09:14:11.164Z,22.09
2022-10-02T09:17:16.930Z,22.26
2022-10-02T09:20:22.582Z,22.45
2022-10-02T09:23:41.484Z,22.76
2022-10-02T09:26:37.643Z,23.25
2022-10-02T09:30:14.557Z,22.83
2022-10-02T09:33:40.441Z,23.01
2022-10-02T09:37:08.665Z,22.97
2022-10-02T09:40:33.028Z,22.94
2022-10-02T09:43:42.377Z,22.75
2022-10-02T09:47:04.764Z,23.14
2022-10-02T09:50:34.897Z,23.21
2022-10-02T09:53:59.516Z,22.75
2022-10-02T09:57:13.269Z,23.12
2022-10-02T10:00:12.984Z,23.55
2022-10-02T10:03:38.296Z,23.57
2022-10-02T10:06:39.315Z,22.79
2022-10-02T10:10:02.151Z,22.99
2022-10-02T10:13:26.579Z,23.10
2022-10-02T10:17:05.810Z,23.50
2022-10-02T10:20:25.765Z,23.26
2022-10-02T10:23:40.369Z,23.41
2022-10-02T10:26:52.815Z,23.20
2022-10-02T10:30:09.859Z,23.20
2022-10-02T10:33:20.128Z,22.84
2022-10-02T10:37:05.469Z,22.73
2022-10-02T10:40:18.723Z,22.98
2022-10-02T10:43:45.219Z,23.02
2022-10-02T10:46:51.166Z,22.91
2022-10-02T10:50:11.342Z,22.79
2022-10-02T10:53:12.781Z,22.90
2022-10-02T10:56:20.720Z,22.77
2022-10-02T10:59:25.445Z,22.74
2022-10-02T11:02:41.180Z,22.48
2022-10-02T11:05:54.689Z,22.64
2022-10-02T11:08:59.905Z,23.52
2022-10-02T11:11:59.216Z,22.93
2022-10-02T11:15:01.996Z,23.12
2022-10-02T11:18:15.325Z,23.04
2022-10-02T11:21:26.007Z,22.52
2022-10-02T11:24:32.383Z,22.65
2022-10-02T11:27:35.681Z,23.20
2022-10-02T11:30:23.498Z,23.00
2022-10-02T11:33:30.175Z,22.64
2022-10-02T11:36:41.693Z,23.14
2022-10-02T11:39:58.689Z,23.06
2022-10-02T11:43:15.580Z,23.29
2022-10-02T11:46:14.715Z,23.69
2022-10-02T11:49:34.484Z,23.94
2022-10-02T11:52:48.650Z,23.56
2022-10-02T11:55:50.567Z,23.93
2022-10-02T11:58:47.518Z,23.68
2022-10-02T12:01:43.183Z,23.38
2022-10-02T12:04:40.734Z,22.91
2022-10-02T12:07:37.659Z,22.94
2022-10-02T12:10:36.514Z,22.37
2022-10-02T12:13:54.709Z,22.73
2022-10-02T12:16:51.797Z,22.77
2022-10-02T12:20:04.093Z,23.46
2022-10-02T12:23:15.343Z,23.47
2022-10-02T12:26:26.408Z,23.73
2022-10-02T12:29:25.438Z,23.70
2022-10-02T12:32:23.180Z,23.25
2022-10-02T12:35:21.281Z,23.34
2022-10-02T12:38:17.371Z,22.96
2022-10-02T12:41:09.230Z,23.69
2022-10-02T12:44:27.448Z,23.37
2022-10-02T12:47:32.236Z,23.46
2022-10-02T12:50:25.813Z,23.59
2022-10-02T12:53:37.282Z,23.29
2022-10-02T12:56:54.984Z,23.07
2022-10-02T12:59:50.466Z,23.09
2022-10-02T13:03:19.340Z,23.43
2022-10-02T13:06:25.827Z,22.73
2022-10-02T13:09:21.020Z,23.43
2022-10-02T13:12:17.769Z,22.93
2022-10-02T13:15:33.806Z,23.17
2022-10-02T13:18:34.950Z,23.26
2022-10-02T13:21:26.770Z,23.20
2022-10-02T13:24:24.803Z,23.05
2022-10-02T13:27:20.700Z,22.82
2022-10-02T13:30:14.219Z,22.65
2022-10-02T13:33:10.834Z,22.85
2022-10-02T13:36:05.397Z,22.69
2022-10-02T13:39:10.564Z,22.84
2022-10-02T13:42:07.676Z,22.90
2022-10-02T13:45:02.402Z,23.06
2022-10-02T13:47:58.992Z,23.02
2022-10-02T13:50:50.969Z,22.77
2022-10-02T13:53:52.609Z,22.70
2022-10-02T13:56:46.318Z,22.48
2022-10-02T13:59:52.924Z,22.69
2022-10-02T14:02:49.696Z,22.79
2022-10-02T14:05:44.028Z,22.76
2022-10-02T14:08:49.037Z,22.34
2022-10-02T14:11:44.235Z,22.61
2022-10-02T14:14:41.183Z,22.26
2022-10-02T14:17:34.582Z,22.12
2022-10-02T14:20:28.366Z,22.39
2022-10-02T14:23:30.252Z,22.82
2022-10-02T14:26:26.873Z,22.59
2022-10-02T14:29:27.638Z,22.03
2022-10-02T14:32:36.580Z,22.31
2022-10-02T14:35:36.274Z,22.29
2022-10-02T14:38:54.915Z,22.03
2022-10-02T14:41:55.301Z,22.12
2022-10-02T14:45:05.305Z,21.86
2022-10-02T14:48:07.803Z,22.20
2022-10-02T14:51:16.240Z,22.07
2022-10-02T14:54:19.905Z,21.68
2022-10-02T14:57:28.033Z,21.51
2022-10-02T15:00:20.170Z,21.70
2022-10-02T15:03:37.619Z,21.79
2022-10-02T15:06:28.627Z,21.66
2022-10-02T15:09:20.842Z,22.00
2022-10-02T15:12:19.895Z,22.16
2022-10-02T15:15:10.401Z,22.06
2022-10-02T15:18:25.201Z,21.67
2022-10-02T15:21:27.047Z,21.69
2022-10-02T15:24:40.786Z,21.73
2022-10-02T15:27:28.028Z,21.54
2022-10-02T15:30:21.584Z,21.46
2022-10-02T15:33:17.516Z,21.57
2022-10-02T15:36:40.689Z,21.87
2022-10-02T15:39:57.102Z,21.72
2022-10-02T15:42:57.987Z,21.69
2022-10-02T15:46:12.404Z,21.73
2022-10-02T15:49:02.219Z,21.25
2022-10-02T15:52:00.330Z,21.53
2022-10-02T15:54:57.907Z,21.57
2022-10-02T15:57:54.858Z,21.62
2022-10-02T16:01:00.921Z,21.53
2022-10-02T16:03:49.178Z,21.73
2022-10-02T16:06:53.663Z,21.48
2022-10-02T16:09:51.055Z,21.50
2022-10-02T16:12:46.524Z,21.57
2022-10-02T16:15:48.027Z,21.50
2022-10-02T16:18:58.118Z,21.36
2022-10-02T16:22:01.355Z,21.50
2022-10-02T16:25:08.589Z,21.40
2022-10-02T16:28:14.437Z,21.50
2022-10-02T16:31:18.551Z,20.86
2022-10-02T16:34:10.140Z,21.31
2022-10-02T16:36:58.369Z,21.17
2022-10-02T16:40:03.147Z,21.42
2022-10-02T16:42:58.545Z,21.26
2022-10-02T16:45:57.354Z,20.10
2022-10-02T16:48:52.839Z,21.04
2022-10-02T16:51:50.552Z,20.99
2022-10-02T16:54:42.429Z,20.97
2022-10-02T16:57:49.715Z,20.65
2022-10-02T17:00:38.504Z,20.52
2022-10-02T17:03:29.455Z,20.55
2022-10-02T17:06:26.747Z,20.57
2022-10-02T17:09:17.201Z,20.59
2022-10-02T17:12:10.009Z,20.41
2022-10-02T17:15:00.567Z,20.34
2022-10-02T17:17:59.919Z,20.27
2022-10-02T17:20:48.620Z,20.37
2022-10-02T17:23:43.880Z,20.17
2022-10-02T17:26:37.963Z,20.08
2022-10-02T17:29:28.900Z,20.33
2022-10-02T17:32:12.691Z,19.96
2022-10-02T17:34:59.988Z,19.89
2022-10-02T17:38:09.901Z,19.97
2022-10-02T17:41:06.328Z,19.73
2022-10-02T17:43:58.675Z,19.14
2022-10-02T17:47:21.273Z,20.07
2022-10-02T17:50:26.198Z,19.98
2022-10-02T17:53:46.882Z,20.03
2022-10-02T17:56:55.929Z,20.36
2022-10-02T17:59:59.056Z,20.03
2022-10-02T18:03:07.663Z,19.82
2022-10-02T18:05:59.549Z,20.26
2022-10-02T18:09:19.264Z,20.14
2022-10-02T18:12:31.038Z,19.79
2022-10-02T18:15:28.306Z,19.37
2022-10-02T18:18:31.433Z,19.60
2022-10-02T18:21:33.887Z,19.62
2022-10-02T18:24:41.781Z,19.50
2022-10-02T18:27:53.435Z,19.32
2022-10-02T18:30:46.263Z,19.06
2022-10-02T18:34:17.211Z,19.30
2022-10-02T18:37:18.879Z,19.12
2022-10-02T18:40:18.642Z,19.46
2022-10-02T18:43:32.751Z,19.47
2022-10-02T18:46:26.797Z,19.15
2022-10-02T18:49:48.292Z,19.52
2022-10-02T18:52:53.947Z,19.57
2022-10-02T18:56:03.482Z,19.26
2022-10-02T18:59:02.948Z,18.93
2022-10-02T19:02:02.473Z,19.00
2022-10-02T19:05:03.488Z,18.72
2022-10-02T19:07:53.210Z,18.71
2022-10-02T19:10:44.983Z,18.55
2022-10-02T19:13:31.280Z,18.52
2022-10-02T19:16:25.471Z,18.45
2022-10-02T19:19:23.100Z,18.05
2022-10-02T19:22:17.809Z,17.86
2022-10-02T19:25:08.331Z,18.13
2022-10-02T19:27:55.373Z,18.17
2022-10-02T19:30:43.474Z,18.25
2022-10-02T19:33:42.286Z,17.80
2022-10-02T19:36:30.503Z,17.93
2022-10-02T19:39:21.658Z,17.97
2022-10-02T19:42:11.399Z,17.37
2022-10-02T19:44:59.529Z,18.05
2022-10-02T19:47:46.902Z,17.72
2022-10-02T19:50:42.600Z,17.85
2022-10-02T19:53:29.703Z,17.63
2022-10-02T19:56:16.949Z,17.76
2022-10-02T19:59:04.554Z,17.93
2022-10-02T20:01:52.726Z,18.08
2022-10-02T20:04:36.948Z,18.19
2022-10-02T20:07:25.874Z,17.98
2022-10-02T20:10:17.499Z,18.46
2022-10-02T20:13:12.507Z,18.54
2022-10-02T20:16:18.106Z,18.43
2022-10-02T20:19:03.383Z,18.64
2022-10-02T20:21:51.482Z,18.38
2022-10-02T20:24:41.893Z,18.44
2022-10-02T20:27:36.848Z,18.26
2022-10-02T20:30:22.676Z,18.09
2022-10-02T20:33:13.318Z,17.85
2022-10-02T20:36:03.276Z,17.17
2022-10-02T20:38:51.546Z,17.37
2022-10-02T20:41:43.027Z,17.14
2022-10-02T20:44:29.863Z,17.36
2022-10-02T20:47:44.848Z,17.24
2022-10-02T20:50:45.157Z,16.78
2022-10-02T20:54:12.585Z,16.95
2022-10-02T20:58:07.504Z,16.75
2022-10-02T21:01:10.611Z,17.01
2022-10-02T21:04:49.237Z,16.77
2022-10-02T21:08:04.833Z,16.65
2022-10-02T21:11:13.472Z,16.36
2022-10-02T21:14:42.443Z,16.13
2022-10-02T21:18:02.653Z,16.30
2022-10-02T21:21:20.346Z,16.39
2022-10-02T21:24:31.554Z,16.44
2022-10-02T21:27:43.002Z,16.20
2022-10-02T21:30:37.837Z,16.19
2022-10-02T21:33:24.041Z,16.16
2022-10-02T21:36:17.287Z,15.75
2022-10-02T21:39:36.784Z,16.06
2022-10-02T21:43:06.766Z,16.42
2022-10-02T21:46:23.076Z,16.02
2022-10-02T21:49:47.203Z,16.31
2022-10-02T21:53:22.162Z,16.34
2022-10-02T21:56:32.220Z,16.25
2022-10-02T21:59:40.091Z,16.37
2022-10-02T22:03:17.906Z,16.50
2022-10-02T22:06:19.324Z,16.37
2022-10-02T22:09:29.260Z,16.29
2022-10-02T22:12:27.815Z,16.30
2022-10-02T22:15:19.275Z,16.39
2022-10-02T22:18:15.287Z,16.58
2022-10-02T22:21:13.913Z,16.81
2022-10-02T22:24:34.406Z,16.85
2022-10-02T22:27:44.909Z,16.81
2022-10-02T22:30:31.105Z,16.70
2022-10-02T22:33:32.070Z,16.65
2022-10-02T22:36:34.446Z,16.48
2022-10-02T22:39:29.501Z,16.29
2022-10-02T22:42:20.480Z,16.06
2022-10-02T22:45:13.706Z,16.19
2022-10-02T22:48:04.161Z,16.03
2022-10-02T22:50:53.299Z,15.92
2022-10-02T22:53:42.870Z,15.69
2022-10-02T22:56:33.904Z,15.79
2022-10-02T22:59:22.439Z,15.73
2022-10-02T23:02:10.751Z,15.68
2022-10-02T23:05:05.333Z,15.80
2022-10-02T23:07:56.712Z,15.73
2022-10-02T23:10:45.351Z,15.47
2022-10-02T23:13:33.459Z,15.75
2022-10-02T23:16:26.646Z,15.69
2022-10-02T23:19:17.221Z,15.47
2022-10-02T23:22:08.632Z,15.26
2022-10-02T23:25:03.060Z,15.29
2022-10-02T23:27:52.860Z,15.27
2022-10-02T23:30:42.237Z,15.21
2022-10-02T23:33:28.550Z,15.23
2022-10-02T23:36:24.226Z,14.90
2022-10-02T23:39:16.725Z,15.07
2022-10-02T23:42:07.099Z,14.88
2022-10-02T23:44:58.365Z,14.85
2022-10-02T23:47:54.826Z,14.40
2022-10-02T23:50:47.142Z,14.44
2022-10-02T23:53:55.498Z,14.20
2022-10-02T23:57:02.818Z,14.54
